Time,TemperatureF,DewpointF,PressureIn,WindDirection,WindDirectionDegrees,WindSpeedMPH,WindSpeedGustMPH,Humidity,HourlyPrecipIn,Conditions,Clouds,dailyrainin,SolarRadiationWatts/m^2,SoftwareType,DateUTC
2013-04-27 00:05:00,54.1,44.5,30.38,NNW,331,0.0,0.0,70,0.00,,,0.00,0,Wunderground v.1.15,2013-04-27 04:05:00,
2013-04-27 00:10:00,54.0,43.7,30.38,NNW,331,0.0,0.0,68,0.00,,,0.00,0,Wunderground v.1.15,2013-04-27 04:10:00,
2013-04-27 00:15:00,54.0,44.1,30.38,NNW,331,0.0,0.0,69,0.00,,,0.00,0,Wunderground v.1.15,2013-04-27 04:15:00,
2013-04-27 00:20:00,53.9,43.6,30.38,NNW,331,0.0,0.0,68,0.00,,,0.00,0,Wunderground v.1.15,2013-04-27 04:20:00,
2013-04-27 00:25:00,53.8,43.9,30.38,NNW,331,0.0,0.0,69,0.00,,,0.00,0,Wunderground v.1.15,2013-04-27 04:25:00,
2013-04-27 00:35:00,53.7,43.0,30.38,NNW,331,0.0,0.0,67,0.00,,,0.00,0,Wunderground v.1.15,2013-04-27 04:35:00,
2013-04-27 00:40:00,53.7,43.8,30.38,NNW,331,0.0,0.0,69,0.00,,,0.00,0,Wunderground v.1.15,2013-04-27 04:40:00,
2013-04-27 00:45:00,53.7,43.4,30.38,NNW,331,0.0,0.0,68,0.00,,,0.00,0,Wunderground v.1.15,2013-04-27 04:45:00,
2013-04-27 00:50:00,53.7,43.8,30.38,NNW,331,0.0,0.0,69,0.00,,,0.00,0,Wunderground v.1.15,2013-04-27 04:50:00,
2013-04-27 00:55:00,53.5,43.6,30.38,NNW,331,0.0,0.0,69,0.00,,,0.00,0,Wunderground v.1.15,2013-04-27 04:55:00,
2013-04-27 01:05:00,53.4,42.7,30.38,NNW,331,0.0,0.0,67,0.00,,,0.00,0,Wunderground v.1.15,2013-04-27 05:05:00,
2013-04-27 01:10:00,53.4,43.1,30.38,NNW,331,0.0,0.0,68,0.00,,,0.00,0,Wunderground v.1.15,2013-04-27 05:10:00,
2013-04-27 01:15:00,53.3,42.2,30.38,NNW,331,0.0,0.0,66,0.00,,,0.00,0,Wunderground v.1.15,2013-04-27 05:15:00,
2013-04-27 01:20:00,53.3,43.8,30.38,NNW,331,0.0,0.0,70,0.00,,,0.00,0,Wunderground v.1.15,2013-04-27 05:20:00,
2013-04-27 01:25:00,53.3,44.1,30.38,NNW,331,0.0,0.0,71,0.00,,,0.00,0,Wunderground v.1.15,2013-04-27 05:25:00,
2013-04-27 01:35:00,53.2,43.3,30.37,NNW,331,0.0,0.0,69,0.00,,,0.00,0,Wunderground v.1.15,2013-04-27 05:35:00,
2013-04-27 01:40:00,53.2,43.7,30.37,NNW,331,0.0,0.0,70,0.00,,,0.00,0,Wunderground v.1.15,2013-04-27 05:40:00,
2013-04-27 01:45:00,53.1,43.2,30.37,NNW,331,0.0,0.0,69,0.00,,,0.00,0,Wunderground v.1.15,2013-04-27 05:45:00,
2013-04-27 01:50:00,53.1,43.6,30.37,NNW,331,0.0,0.0,70,0.00,,,0.00,0,Wunderground v.1.15,2013-04-27 05:50:00,
2013-04-27 01:55:00,53.0,43.1,30.37,NNW,331,0.0,0.0,69,0.00,,,0.00,0,Wunderground v.1.15,2013-04-27 05:55:00,
2013-04-27 02:00:00,53.0,43.1,30.37,NNW,331,0.0,0.0,69,0.00,,,0.00,0,Wunderground v.1.15,2013-04-27 06:00:00,
2013-04-27 02:10:00,53.0,43.1,30.37,NNW,331,0.0,0.0,69,0.00,,,0.00,0,Wunderground v.1.15,2013-04-27 06:10:00,
2013-04-27 02:15:00,53.0,43.5,30.37,NNW,331,0.0,0.0,70,0.00,,,0.00,0,Wunderground v.1.15,2013-04-27 06:15:00,
2013-04-27 02:20:00,53.0,43.5,30.37,NNW,331,0.0,0.0,70,0.00,,,0.00,0,Wunderground v.1.15,2013-04-27 06:20:00,
2013-04-27 02:25:00,52.9,43.0,30.38,NNW,331,0.0,0.0,69,0.00,,,0.00,0,Wunderground v.1.15,2013-04-27 06:25:00,
2013-04-27 02:35:00,53.0,43.1,30.37,NNW,331,0.0,0.0,69,0.00,,,0.00,0,Wunderground v.1.15,2013-04-27 06:35:00,
2013-04-27 02:40:00,53.0,43.5,30.37,NNW,331,0.0,0.0,70,0.00,,,0.00,0,Wunderground v.1.15,2013-04-27 06:40:00,
2013-04-27 02:45:00,53.0,43.1,30.37,NNW,331,0.0,0.0,69,0.00,,,0.00,0,Wunderground v.1.15,2013-04-27 06:45:00,
2013-04-27 02:50:00,53.0,43.8,30.37,NNW,331,0.0,0.0,71,0.00,,,0.00,0,Wunderground v.1.15,2013-04-27 06:50:00,
2013-04-27 02:55:00,52.9,43.7,30.37,NNW,331,0.0,0.0,71,0.00,,,0.00,0,Wunderground v.1.15,2013-04-27 06:55:00,
2013-04-27 03:05:00,52.7,43.9,30.37,NNW,331,0.0,0.0,72,0.00,,,0.00,0,Wunderground v.1.15,2013-04-27 07:05:00,
2013-04-27 03:10:00,52.7,43.9,30.37,NNW,331,0.0,0.0,72,0.00,,,0.00,0,Wunderground v.1.15,2013-04-27 07:10:00,
2013-04-27 03:15:00,52.7,43.9,30.37,NNW,331,0.0,0.0,72,0.00,,,0.00,0,Wunderground v.1.15,2013-04-27 07:15:00,
2013-04-27 03:20:00,52.7,43.9,30.37,NNW,331,0.0,0.0,72,0.00,,,0.00,0,Wunderground v.1.15,2013-04-27 07:20:00,
2013-04-27 03:25:00,52.7,43.9,30.37,NNW,331,0.0,0.0,72,0.00,,,0.00,0,Wunderground v.1.15,2013-04-27 07:25:00,
2013-04-27 03:35:00,52.7,44.3,30.37,NNW,331,0.0,0.0,73,0.00,,,0.00,0,Wunderground v.1.15,2013-04-27 07:35:00,
2013-04-27 03:40:00,52.7,44.3,30.37,NNW,331,0.0,0.0,73,0.00,,,0.00,0,Wunderground v.1.15,2013-04-27 07:40:00,
2013-04-27 03:45:00,52.6,44.2,30.37,NNW,331,0.0,0.0,73,0.00,,,0.00,0,Wunderground v.1.15,2013-04-27 07:45:00,
2013-04-27 03:50:00,52.6,44.2,30.37,NNW,331,0.0,0.0,73,0.00,,,0.00,0,Wunderground v.1.15,2013-04-27 07:50:00,
2013-04-27 03:55:00,52.5,44.1,30.37,NNW,331,0.0,0.0,73,0.00,,,0.00,0,Wunderground v.1.15,2013-04-27 07:55:00,
2013-04-27 04:05:00,52.4,44.0,30.37,NNW,331,0.0,0.0,73,0.00,,,0.00,0,Wunderground v.1.15,2013-04-27 08:05:00,
2013-04-27 04:10:00,52.3,44.3,30.37,NNW,331,0.0,0.0,74,0.00,,,0.00,0,Wunderground v.1.15,2013-04-27 08:10:00,
2013-04-27 04:15:00,52.3,43.9,30.37,NNW,331,0.0,0.0,73,0.00,,,0.00,0,Wunderground v.1.15,2013-04-27 08:15:00,
2013-04-27 04:20:00,52.3,43.9,30.36,NNW,331,0.0,0.0,73,0.00,,,0.00,0,Wunderground v.1.15,2013-04-27 08:20:00,
2013-04-27 04:25:00,52.3,43.9,30.36,NNW,331,0.0,0.0,73,0.00,,,0.00,0,Wunderground v.1.15,2013-04-27 08:25:00,
2013-04-27 04:35:00,52.3,44.3,30.36,NNW,331,0.0,0.0,74,0.00,,,0.00,0,Wunderground v.1.15,2013-04-27 08:35:00,
2013-04-27 04:40:00,52.2,44.2,30.36,NNW,331,0.0,0.0,74,0.00,,,0.00,0,Wunderground v.1.15,2013-04-27 08:40:00,
2013-04-27 04:45:00,52.2,44.2,30.36,NNW,331,0.0,0.0,74,0.00,,,0.00,0,Wunderground v.1.15,2013-04-27 08:45:00,
2013-04-27 04:50:00,52.1,44.1,30.36,NNW,331,0.0,0.0,74,0.00,,,0.00,0,Wunderground v.1.15,2013-04-27 08:50:00,
2013-04-27 05:00:00,52.0,44.3,30.36,NNW,331,0.0,0.0,75,0.00,,,0.00,0,Wunderground v.1.15,2013-04-27 09:00:00,
2013-04-27 05:05:00,51.9,43.9,30.36,NNW,331,0.0,0.0,74,0.00,,,0.00,0,Wunderground v.1.15,2013-04-27 09:05:00,
2013-04-27 05:10:00,51.9,44.2,30.36,NNW,331,0.0,0.0,75,0.00,,,0.00,0,Wunderground v.1.15,2013-04-27 09:10:00,
2013-04-27 05:15:00,51.8,44.1,30.35,NNW,331,0.0,0.0,75,0.00,,,0.00,0,Wunderground v.1.15,2013-04-27 09:15:00,
2013-04-27 05:20:00,51.8,44.5,30.35,NNW,331,0.0,0.0,76,0.00,,,0.00,0,Wunderground v.1.15,2013-04-27 09:20:00,
2013-04-27 05:30:00,51.6,44.3,30.35,NNW,331,0.0,0.0,76,0.00,,,0.00,0,Wunderground v.1.15,2013-04-27 09:30:00,
2013-04-27 05:35:00,51.5,44.2,30.35,NNW,331,0.0,0.0,76,0.00,,,0.00,0,Wunderground v.1.15,2013-04-27 09:35:00,
2013-04-27 05:40:00,51.3,44.3,30.35,NNW,331,0.0,0.0,77,0.00,,,0.00,0,Wunderground v.1.15,2013-04-27 09:40:00,
2013-04-27 05:45:00,51.1,44.5,30.36,NNW,331,0.0,0.0,78,0.00,,,0.00,0,Wunderground v.1.15,2013-04-27 09:45:00,
2013-04-27 05:50:00,50.8,44.9,30.36,NNW,331,0.0,0.0,80,0.00,,,0.00,0,Wunderground v.1.15,2013-04-27 09:50:00,
2013-04-27 05:55:00,50.6,44.7,30.36,NNW,331,0.0,0.0,80,0.00,,,0.00,0,Wunderground v.1.15,2013-04-27 09:55:00,
2013-04-27 06:05:00,50.1,44.2,30.35,NNW,331,0.0,0.0,80,0.00,,,0.00,0,Wunderground v.1.15,2013-04-27 10:05:00,
2013-04-27 06:10:00,50.1,44.5,30.36,NNW,331,0.0,0.0,81,0.00,,,0.00,0,Wunderground v.1.15,2013-04-27 10:10:00,
2013-04-27 06:15:00,50.0,44.7,30.36,NNW,331,0.0,0.0,82,0.00,,,0.00,0,Wunderground v.1.15,2013-04-27 10:15:00,
2013-04-27 06:20:00,50.0,45.0,30.36,NNW,331,0.0,0.0,83,0.00,,,0.00,0,Wunderground v.1.15,2013-04-27 10:20:00,
2013-04-27 06:25:00,50.0,45.0,30.36,NNW,331,0.0,0.0,83,0.00,,,0.00,0,Wunderground v.1.15,2013-04-27 10:25:00,
2013-04-27 06:35:00,50.0,45.0,30.36,NNW,331,0.0,0.0,83,0.00,,,0.00,7,Wunderground v.1.15,2013-04-27 10:35:00,
2013-04-27 06:40:00,50.1,45.1,30.37,NNW,331,0.0,0.0,83,0.00,,,0.00,9,Wunderground v.1.15,2013-04-27 10:40:00,
2013-04-27 06:45:00,50.1,45.1,30.37,NNW,331,0.0,0.0,83,0.00,,,0.00,11,Wunderground v.1.15,2013-04-27 10:45:00,
2013-04-27 06:50:00,50.2,45.2,30.37,NNW,331,0.0,0.0,83,0.00,,,0.00,16,Wunderground v.1.15,2013-04-27 10:50:00,
2013-04-27 06:55:00,50.3,45.3,30.37,NNW,331,0.0,0.0,83,0.00,,,0.00,21,Wunderground v.1.15,2013-04-27 10:55:00,
2013-04-27 07:05:00,50.5,45.8,30.38,NNW,331,0.0,0.0,84,0.00,,,0.00,28,Wunderground v.1.15,2013-04-27 11:05:00,
2013-04-27 07:10:00,50.4,45.4,30.38,NNW,331,0.0,0.0,83,0.00,,,0.00,32,Wunderground v.1.15,2013-04-27 11:10:00,
2013-04-27 07:15:00,50.5,45.5,30.38,NNW,331,0.0,0.0,83,0.00,,,0.00,33,Wunderground v.1.15,2013-04-27 11:15:00,
2013-04-27 07:20:00,50.6,45.6,30.38,NNW,331,0.0,0.0,83,0.00,,,0.00,33,Wunderground v.1.15,2013-04-27 11:20:00,
2013-04-27 07:25:00,50.7,46.0,30.38,NNW,331,0.0,0.0,84,0.00,,,0.00,33,Wunderground v.1.15,2013-04-27 11:25:00,
2013-04-27 07:35:00,50.9,46.6,30.38,NNW,331,0.0,0.0,85,0.00,,,0.00,37,Wunderground v.1.15,2013-04-27 11:35:00,
2013-04-27 07:40:00,50.8,46.5,30.38,NNW,331,0.0,0.0,85,0.00,,,0.00,33,Wunderground v.1.15,2013-04-27 11:40:00,
2013-04-27 07:45:00,50.9,46.6,30.38,NNW,331,0.0,0.0,85,0.00,,,0.00,33,Wunderground v.1.15,2013-04-27 11:45:00,
2013-04-27 07:50:00,50.9,46.2,30.38,NNW,331,0.0,0.0,84,0.00,,,0.00,32,Wunderground v.1.15,2013-04-27 11:50:00,
2013-04-27 07:55:00,51.0,46.3,30.39,NNW,331,0.0,0.0,84,0.00,,,0.00,32,Wunderground v.1.15,2013-04-27 11:55:00,
2013-04-27 08:05:00,51.1,45.1,30.39,NNW,331,0.0,0.0,80,0.00,,,0.00,33,Wunderground v.1.15,2013-04-27 12:05:00,
2013-04-27 08:10:00,51.2,45.6,30.39,NNW,331,0.0,0.0,81,0.00,,,0.00,35,Wunderground v.1.15,2013-04-27 12:10:00,
2013-04-27 08:15:00,51.4,45.8,30.39,NNW,331,0.0,0.0,81,0.00,,,0.00,37,Wunderground v.1.15,2013-04-27 12:15:00,
2013-04-27 08:20:00,51.5,45.5,30.39,NNW,331,0.0,0.0,80,0.00,,,0.00,37,Wunderground v.1.15,2013-04-27 12:20:00,
2013-04-27 08:25:00,51.7,46.1,30.39,NNW,331,0.0,0.0,81,0.00,,,0.00,39,Wunderground v.1.15,2013-04-27 12:25:00,
2013-04-27 08:30:00,51.9,45.9,30.39,NNW,331,0.0,0.0,80,0.00,,,0.00,40,Wunderground v.1.15,2013-04-27 12:30:00,
2013-04-27 08:40:00,52.4,46.7,30.39,NNW,331,0.0,0.0,81,0.00,,,0.00,49,Wunderground v.1.15,2013-04-27 12:40:00,
2013-04-27 08:45:00,52.7,47.0,30.39,NNW,331,0.0,0.0,81,0.00,,,0.00,56,Wunderground v.1.15,2013-04-27 12:45:00,
2013-04-27 08:50:00,52.9,46.9,30.39,NNW,331,0.0,0.0,80,0.00,,,0.00,62,Wunderground v.1.15,2013-04-27 12:50:00,
2013-04-27 08:55:00,53.4,47.4,30.39,NNW,331,0.0,0.0,80,0.00,,,0.00,72,Wunderground v.1.15,2013-04-27 12:55:00,
2013-04-27 09:05:00,54.1,48.4,30.39,NNW,331,0.0,2.0,81,0.00,,,0.00,128,Wunderground v.1.15,2013-04-27 13:05:00,
2013-04-27 09:10:00,54.6,48.9,30.39,NNW,330,1.0,1.0,81,0.00,,,0.00,132,Wunderground v.1.15,2013-04-27 13:10:00,
2013-04-27 09:15:00,55.1,49.0,30.38,NNW,330,1.0,1.0,80,0.00,,,0.00,116,Wunderground v.1.15,2013-04-27 13:15:00,
2013-04-27 09:20:00,55.5,49.1,30.39,NNW,330,0.0,0.0,79,0.00,,,0.00,134,Wunderground v.1.15,2013-04-27 13:20:00,
2013-04-27 09:25:00,55.9,49.5,30.38,NNW,330,0.0,0.0,79,0.00,,,0.00,132,Wunderground v.1.15,2013-04-27 13:25:00,
2013-04-27 09:35:00,56.6,50.2,30.39,NNW,330,0.0,0.0,79,0.00,,,0.00,125,Wunderground v.1.15,2013-04-27 13:35:00,
2013-04-27 09:40:00,57.1,50.0,30.39,NNW,330,0.0,0.0,77,0.00,,,0.00,172,Wunderground v.1.15,2013-04-27 13:40:00,
2013-04-27 09:50:00,57.9,50.4,30.38,NNW,330,0.0,0.0,76,0.00,,,0.00,97,Wunderground v.1.15,2013-04-27 13:50:00,
2013-04-27 09:55:00,58.2,51.0,30.38,NNW,330,0.0,0.0,77,0.00,,,0.00,144,Wunderground v.1.15,2013-04-27 13:55:00,
2013-04-27 10:05:00,58.6,51.1,30.38,NNW,330,0.0,0.0,76,0.00,,,0.00,113,Wunderground v.1.15,2013-04-27 14:05:00,
2013-04-27 10:10:00,58.8,51.6,30.38,NNW,330,0.0,0.0,77,0.00,,,0.00,130,Wunderground v.1.15,2013-04-27 14:10:00,
2013-04-27 10:15:00,59.0,51.1,30.38,NNW,330,0.0,0.0,75,0.00,,,0.00,105,Wunderground v.1.15,2013-04-27 14:15:00,
2013-04-27 10:25:00,59.8,51.1,30.38,NNW,329,0.0,1.0,73,0.00,,,0.00,132,Wunderground v.1.15,2013-04-27 14:25:00,
2013-04-27 10:30:00,60.8,49.4,30.38,SSW,198,1.0,2.0,66,0.00,,,0.00,670,Wunderground v.1.15,2013-04-27 14:30:00,
2013-04-27 10:35:00,61.8,49.9,30.38,SSW,198,2.0,3.0,65,0.00,,,0.00,729,Wunderground v.1.15,2013-04-27 14:35:00,
2013-04-27 10:40:00,62.6,48.1,30.38,SSW,198,2.0,5.0,59,0.00,,,0.00,684,Wunderground v.1.15,2013-04-27 14:40:00,
2013-04-27 10:45:00,63.3,49.2,30.38,South,188,3.0,5.0,60,0.00,,,0.00,719,Wunderground v.1.15,2013-04-27 14:45:00,
2013-04-27 10:50:00,63.9,50.6,30.38,South,187,2.0,5.0,62,0.00,,,0.00,722,Wunderground v.1.15,2013-04-27 14:50:00,
2013-04-27 11:00:00,65.0,50.8,30.38,South,188,1.0,3.0,60,0.00,,,0.00,777,Wunderground v.1.15,2013-04-27 15:00:00,
2013-04-27 11:05:00,65.6,49.0,30.38,South,188,1.0,3.0,55,0.00,,,0.00,780,Wunderground v.1.15,2013-04-27 15:05:00,
2013-04-27 11:10:00,66.1,49.9,30.37,South,188,2.0,2.0,56,0.00,,,0.00,803,Wunderground v.1.15,2013-04-27 15:10:00,
2013-04-27 11:15:00,66.6,47.9,30.38,South,183,1.0,4.0,51,0.00,,,0.00,800,Wunderground v.1.15,2013-04-27 15:15:00,
2013-04-27 11:20:00,66.9,46.6,30.37,SW,217,2.0,2.0,48,0.00,,,0.00,768,Wunderground v.1.15,2013-04-27 15:20:00,
2013-04-27 11:30:00,67.7,45.0,30.37,SSW,209,1.0,1.0,44,0.00,,,0.00,791,Wunderground v.1.15,2013-04-27 15:30:00,
2013-04-27 11:35:00,67.6,47.8,30.37,SSW,192,1.0,1.0,49,0.00,,,0.00,819,Wunderground v.1.15,2013-04-27 15:35:00,
2013-04-27 11:40:00,67.6,45.5,30.37,SSW,205,0.0,0.0,45,0.00,,,0.00,768,Wunderground v.1.15,2013-04-27 15:40:00,
2013-04-27 11:45:00,68.4,46.2,30.37,South,181,1.0,4.0,45,0.00,,,0.00,809,Wunderground v.1.15,2013-04-27 15:45:00,
2013-04-27 11:50:00,68.2,43.6,30.37,SW,215,3.0,3.0,41,0.00,,,0.00,874,Wunderground v.1.15,2013-04-27 15:50:00,
2013-04-27 12:00:00,68.6,46.4,30.36,South,178,1.0,1.0,45,0.00,,,0.00,893,Wunderground v.1.15,2013-04-27 16:00:00,
2013-04-27 12:05:00,67.8,44.5,30.36,WSW,251,0.0,1.0,43,0.00,,,0.00,870,Wunderground v.1.15,2013-04-27 16:05:00,
2013-04-27 12:10:00,68.6,45.2,30.36,South,184,1.0,1.0,43,0.00,,,0.00,907,Wunderground v.1.15,2013-04-27 16:10:00,
2013-04-27 12:15:00,69.4,45.3,30.36,SSE,156,4.0,4.0,42,0.00,,,0.00,891,Wunderground v.1.15,2013-04-27 16:15:00,
2013-04-27 12:20:00,69.5,45.4,30.35,SSE,157,3.0,4.0,42,0.00,,,0.00,886,Wunderground v.1.15,2013-04-27 16:20:00,
2013-04-27 12:30:00,70.0,47.1,30.35,SSW,200,1.0,3.0,44,0.00,,,0.00,911,Wunderground v.1.15,2013-04-27 16:30:00,
2013-04-27 12:35:00,69.3,44.6,30.35,SW,236,2.0,3.0,41,0.00,,,0.00,930,Wunderground v.1.15,2013-04-27 16:35:00,
2013-04-27 12:40:00,68.9,44.2,30.34,SSW,200,1.0,1.0,41,0.00,,,0.00,916,Wunderground v.1.15,2013-04-27 16:40:00,
2013-04-27 12:45:00,69.4,47.1,30.34,SW,226,0.0,1.0,45,0.00,,,0.00,960,Wunderground v.1.15,2013-04-27 16:45:00,
2013-04-27 12:50:00,70.4,47.4,30.34,South,170,2.0,4.0,44,0.00,,,0.00,930,Wunderground v.1.15,2013-04-27 16:50:00,
2013-04-27 13:00:00,70.0,46.5,30.33,SSE,147,3.0,3.0,43,0.00,,,0.00,923,Wunderground v.1.15,2013-04-27 17:00:00,
2013-04-27 13:05:00,70.4,49.2,30.33,SSW,209,0.0,3.0,47,0.00,,,0.00,911,Wunderground v.1.15,2013-04-27 17:05:00,
2013-04-27 13:10:00,70.3,46.1,30.33,South,182,1.0,7.0,42,0.00,,,0.00,940,Wunderground v.1.15,2013-04-27 17:10:00,
2013-04-27 13:15:00,71.3,45.7,30.33,SW,223,3.0,7.0,40,0.00,,,0.00,954,Wunderground v.1.15,2013-04-27 17:15:00,
2013-04-27 13:20:00,70.3,46.7,30.33,SSE,157,3.0,3.0,43,0.00,,,0.00,879,Wunderground v.1.15,2013-04-27 17:20:00,
2013-04-27 13:30:00,70.2,46.6,30.32,South,177,2.0,6.0,43,0.00,,,0.00,958,Wunderground v.1.15,2013-04-27 17:30:00,
2013-04-27 13:35:00,70.2,46.6,30.33,SSW,209,2.0,6.0,43,0.00,,,0.00,976,Wunderground v.1.15,2013-04-27 17:35:00,
2013-04-27 13:40:00,70.3,46.7,30.32,SW,232,1.0,1.0,43,0.00,,,0.00,926,Wunderground v.1.15,2013-04-27 17:40:00,
2013-04-27 13:50:00,71.5,46.6,30.32,WSW,244,1.0,1.0,41,0.00,,,0.00,1011,Wunderground v.1.15,2013-04-27 17:50:00,
2013-04-27 13:55:00,71.2,46.9,30.32,SSW,202,1.0,3.0,42,0.00,,,0.00,1025,Wunderground v.1.15,2013-04-27 17:55:00,
2013-04-27 14:00:00,71.7,47.4,30.32,SW,223,1.0,1.0,42,0.00,,,0.00,1025,Wunderground v.1.15,2013-04-27 18:00:00,
2013-04-27 14:05:00,70.8,47.8,30.31,SSW,204,0.0,1.0,44,0.00,,,0.00,905,Wunderground v.1.15,2013-04-27 18:05:00,
2013-04-27 14:10:00,70.1,45.9,30.31,North,351,0.0,0.0,42,0.00,,,0.00,824,Wunderground v.1.15,2013-04-27 18:10:00,
2013-04-27 14:20:00,70.9,47.9,30.31,SSW,200,0.0,0.0,44,0.00,,,0.00,302,Wunderground v.1.15,2013-04-27 18:20:00,
2013-04-27 14:25:00,71.1,47.5,30.31,South,184,1.0,1.0,43,0.00,,,0.00,411,Wunderground v.1.15,2013-04-27 18:25:00,
2013-04-27 14:30:00,71.1,46.2,30.31,South,188,1.0,1.0,41,0.00,,,0.00,315,Wunderground v.1.15,2013-04-27 18:30:00,
2013-04-27 14:35:00,70.6,48.2,30.31,ENE,71,1.0,1.0,45,0.00,,,0.00,325,Wunderground v.1.15,2013-04-27 18:35:00,
2013-04-27 14:40:00,70.2,47.9,30.31,NNW,348,0.0,0.0,45,0.00,,,0.00,394,Wunderground v.1.15,2013-04-27 18:40:00,
2013-04-27 14:50:00,70.4,48.0,30.31,South,190,0.0,0.0,45,0.00,,,0.00,336,Wunderground v.1.15,2013-04-27 18:50:00,
2013-04-27 14:55:00,71.4,49.5,30.30,South,179,0.0,0.0,46,0.00,,,0.00,378,Wunderground v.1.15,2013-04-27 18:55:00,
2013-04-27 15:00:00,71.7,47.4,30.30,SSW,196,0.0,0.0,42,0.00,,,0.00,341,Wunderground v.1.15,2013-04-27 19:00:00,
2013-04-27 15:10:00,71.4,48.3,30.31,West,275,0.0,0.0,44,0.00,,,0.00,496,Wunderground v.1.15,2013-04-27 19:10:00,
2013-04-27 15:15:00,71.4,48.9,30.30,SW,214,0.0,0.0,45,0.00,,,0.00,471,Wunderground v.1.15,2013-04-27 19:15:00,
2013-04-27 15:20:00,71.9,48.8,30.30,SSW,196,0.0,0.0,44,0.00,,,0.00,413,Wunderground v.1.15,2013-04-27 19:20:00,
2013-04-27 15:25:00,72.0,48.9,30.30,South,190,0.0,0.0,44,0.00,,,0.00,295,Wunderground v.1.15,2013-04-27 19:25:00,
2013-04-27 15:35:00,71.1,48.1,30.30,South,188,0.0,0.0,44,0.00,,,0.00,329,Wunderground v.1.15,2013-04-27 19:35:00,
2013-04-27 15:40:00,71.2,49.9,30.30,South,188,0.0,0.0,47,0.00,,,0.00,274,Wunderground v.1.15,2013-04-27 19:40:00,
2013-04-27 15:45:00,71.4,50.1,30.30,SSE,159,0.0,0.0,47,0.00,,,0.00,285,Wunderground v.1.15,2013-04-27 19:45:00,
2013-04-27 15:50:00,71.4,50.7,30.30,SSE,159,0.0,0.0,48,0.00,,,0.00,302,Wunderground v.1.15,2013-04-27 19:50:00,
2013-04-27 15:55:00,71.1,49.8,30.30,SSE,159,0.0,0.0,47,0.00,,,0.00,455,Wunderground v.1.15,2013-04-27 19:55:00,
2013-04-27 16:05:00,71.9,50.0,30.29,South,178,0.0,0.0,46,0.00,,,0.00,350,Wunderground v.1.15,2013-04-27 20:05:00,
2013-04-27 16:10:00,71.6,47.9,30.29,South,180,0.0,0.0,43,0.00,,,0.00,334,Wunderground v.1.15,2013-04-27 20:10:00,
2013-04-27 16:15:00,71.1,48.7,30.29,SSE,159,0.0,0.0,45,0.00,,,0.00,357,Wunderground v.1.15,2013-04-27 20:15:00,
2013-04-27 16:20:00,71.3,50.6,30.29,SSE,159,0.0,0.0,48,0.00,,,0.00,285,Wunderground v.1.15,2013-04-27 20:20:00,
2013-04-27 16:25:00,71.1,49.3,30.29,South,180,0.0,3.0,46,0.00,,,0.00,265,Wunderground v.1.15,2013-04-27 20:25:00,
2013-04-27 16:35:00,71.5,50.8,30.29,South,182,1.0,1.0,48,0.00,,,0.00,283,Wunderground v.1.15,2013-04-27 20:35:00,
2013-04-27 16:40:00,71.7,50.4,30.28,South,182,0.0,1.0,47,0.00,,,0.00,323,Wunderground v.1.15,2013-04-27 20:40:00,
2013-04-27 16:45:00,71.5,50.2,30.28,South,186,0.0,1.0,47,0.00,,,0.00,318,Wunderground v.1.15,2013-04-27 20:45:00,
2013-04-27 16:50:00,71.4,50.7,30.28,South,186,0.0,0.0,48,0.00,,,0.00,338,Wunderground v.1.15,2013-04-27 20:50:00,
2013-04-27 16:55:00,71.4,50.1,30.28,South,186,0.0,0.0,47,0.00,,,0.00,318,Wunderground v.1.15,2013-04-27 20:55:00,
2013-04-27 17:05:00,71.3,50.6,30.28,South,186,0.0,0.0,48,0.00,,,0.00,318,Wunderground v.1.15,2013-04-27 21:05:00,
2013-04-27 17:10:00,71.7,51.0,30.28,South,186,0.0,0.0,48,0.00,,,0.00,294,Wunderground v.1.15,2013-04-27 21:10:00,
2013-04-27 17:15:00,71.5,51.3,30.28,South,186,0.0,0.0,49,0.00,,,0.00,301,Wunderground v.1.15,2013-04-27 21:15:00,
2013-04-27 17:20:00,71.4,50.7,30.28,South,186,0.0,0.0,48,0.00,,,0.00,336,Wunderground v.1.15,2013-04-27 21:20:00,
2013-04-27 17:25:00,71.5,51.9,30.28,South,186,0.0,0.0,50,0.00,,,0.00,352,Wunderground v.1.15,2013-04-27 21:25:00,
2013-04-27 17:30:00,71.7,49.8,30.28,South,186,0.0,0.0,46,0.00,,,0.00,288,Wunderground v.1.15,2013-04-27 21:30:00,
2013-04-27 17:40:00,71.4,48.9,30.28,South,186,0.0,0.0,45,0.00,,,0.00,202,Wunderground v.1.15,2013-04-27 21:40:00,
2013-04-27 17:45:00,70.8,50.7,30.28,South,186,0.0,0.0,49,0.00,,,0.00,192,Wunderground v.1.15,2013-04-27 21:45:00,
2013-04-27 17:50:00,70.5,49.3,30.28,South,186,0.0,0.0,47,0.00,,,0.00,156,Wunderground v.1.15,2013-04-27 21:50:00,
2013-04-27 17:55:00,70.4,50.3,30.28,South,187,0.0,0.0,49,0.00,,,0.00,142,Wunderground v.1.15,2013-04-27 21:55:00,
2013-04-27 18:05:00,69.7,50.2,30.28,South,186,0.0,0.0,50,0.00,,,0.00,153,Wunderground v.1.15,2013-04-27 22:05:00,
2013-04-27 18:10:00,69.7,51.3,30.28,South,186,0.0,0.0,52,0.00,,,0.00,139,Wunderground v.1.15,2013-04-27 22:10:00,
2013-04-27 18:15:00,69.7,51.3,30.28,South,186,0.0,0.0,52,0.00,,,0.00,148,Wunderground v.1.15,2013-04-27 22:15:00,
2013-04-27 18:20:00,69.6,50.7,30.27,South,186,0.0,0.0,51,0.00,,,0.00,146,Wunderground v.1.15,2013-04-27 22:20:00,
2013-04-27 18:25:00,69.5,52.1,30.27,South,186,0.0,0.0,54,0.00,,,0.00,134,Wunderground v.1.15,2013-04-27 22:25:00,
2013-04-27 18:35:00,69.7,51.8,30.27,South,186,0.0,0.0,53,0.00,,,0.00,98,Wunderground v.1.15,2013-04-27 22:35:00,
2013-04-27 18:40:00,69.6,50.7,30.27,South,182,0.0,0.0,51,0.00,,,0.00,86,Wunderground v.1.15,2013-04-27 22:40:00,
2013-04-27 18:45:00,69.4,50.5,30.27,South,187,0.0,0.0,51,0.00,,,0.00,79,Wunderground v.1.15,2013-04-27 22:45:00,
2013-04-27 18:50:00,69.2,50.3,30.27,South,186,0.0,0.0,51,0.00,,,0.00,79,Wunderground v.1.15,2013-04-27 22:50:00,
2013-04-27 18:55:00,68.9,50.0,30.27,South,187,0.0,0.0,51,0.00,,,0.00,74,Wunderground v.1.15,2013-04-27 22:55:00,
2013-04-27 19:05:00,68.4,50.6,30.27,South,186,0.0,0.0,53,0.00,,,0.00,51,Wunderground v.1.15,2013-04-27 23:05:00,
2013-04-27 19:10:00,68.1,50.8,30.27,South,186,0.0,0.0,54,0.00,,,0.00,47,Wunderground v.1.15,2013-04-27 23:10:00,
2013-04-27 19:15:00,67.9,51.1,30.27,South,186,0.0,0.0,55,0.00,,,0.00,40,Wunderground v.1.15,2013-04-27 23:15:00,
2013-04-27 19:20:00,67.6,51.8,30.26,South,186,0.0,0.0,57,0.00,,,0.00,26,Wunderground v.1.15,2013-04-27 23:20:00,
2013-04-27 19:25:00,67.3,50.6,30.27,South,186,0.0,0.0,55,0.00,,,0.00,18,Wunderground v.1.15,2013-04-27 23:25:00,
2013-04-27 19:35:00,66.7,51.5,30.27,South,186,0.0,0.0,58,0.00,,,0.00,11,Wunderground v.1.15,2013-04-27 23:35:00,
2013-04-27 19:40:00,66.4,51.6,30.27,South,187,0.0,0.0,59,0.00,,,0.00,9,Wunderground v.1.15,2013-04-27 23:40:00,
2013-04-27 19:45:00,66.0,52.2,30.26,South,186,0.0,0.0,61,0.00,,,0.00,5,Wunderground v.1.15,2013-04-27 23:45:00,
2013-04-27 19:50:00,65.6,52.2,30.26,South,186,0.0,0.0,62,0.00,,,0.00,0,Wunderground v.1.15,2013-04-27 23:50:00,
2013-04-27 19:55:00,65.3,52.4,30.26,South,187,0.0,0.0,63,0.00,,,0.00,0,Wunderground v.1.15,2013-04-27 23:55:00,
2013-04-27 20:05:00,64.6,52.1,30.26,South,187,0.0,0.0,64,0.00,,,0.00,0,Wunderground v.1.15,2013-04-28 00:05:00,
2013-04-27 20:10:00,64.4,52.4,30.26,South,187,0.0,0.0,65,0.00,,,0.00,0,Wunderground v.1.15,2013-04-28 00:10:00,
2013-04-27 20:15:00,64.0,52.0,30.26,South,186,0.0,0.0,65,0.00,,,0.00,0,Wunderground v.1.15,2013-04-28 00:15:00,
2013-04-27 20:20:00,63.7,52.1,30.26,South,187,0.0,0.0,66,0.00,,,0.00,0,Wunderground v.1.15,2013-04-28 00:20:00,
2013-04-27 20:30:00,63.2,52.1,30.26,South,186,0.0,0.0,67,0.00,,,0.00,0,Wunderground v.1.15,2013-04-28 00:30:00,
2013-04-27 20:35:00,63.1,52.4,30.26,South,186,0.0,0.0,68,0.00,,,0.00,0,Wunderground v.1.15,2013-04-28 00:35:00,
2013-04-27 20:40:00,62.9,52.2,30.26,South,186,0.0,0.0,68,0.00,,,0.00,0,Wunderground v.1.15,2013-04-28 00:40:00,
2013-04-27 20:45:00,62.8,52.5,30.27,South,186,0.0,0.0,69,0.00,,,0.00,0,Wunderground v.1.15,2013-04-28 00:45:00,
2013-04-27 20:55:00,62.4,52.5,30.27,South,187,0.0,0.0,70,0.00,,,0.00,0,Wunderground v.1.15,2013-04-28 00:55:00,
2013-04-27 21:00:00,62.3,52.4,30.27,South,186,0.0,0.0,70,0.00,,,0.00,0,Wunderground v.1.15,2013-04-28 01:00:00,
2013-04-27 21:05:00,62.1,52.6,30.27,South,186,0.0,0.0,71,0.00,,,0.00,0,Wunderground v.1.15,2013-04-28 01:05:00,
2013-04-27 21:10:00,61.9,52.4,30.27,South,186,0.0,0.0,71,0.00,,,0.00,0,Wunderground v.1.15,2013-04-28 01:10:00,
2013-04-27 21:15:00,61.7,52.2,30.27,South,187,0.0,0.0,71,0.00,,,0.00,0,Wunderground v.1.15,2013-04-28 01:15:00,
2013-04-27 21:25:00,61.4,52.3,30.27,South,187,0.0,0.0,72,0.00,,,0.00,0,Wunderground v.1.15,2013-04-28 01:25:00,
2013-04-27 21:30:00,61.2,52.1,30.27,South,187,0.0,0.0,72,0.00,,,0.00,0,Wunderground v.1.15,2013-04-28 01:30:00,
2013-04-27 21:35:00,60.9,51.8,30.27,South,186,0.0,0.0,72,0.00,,,0.00,0,Wunderground v.1.15,2013-04-28 01:35:00,
2013-04-27 21:40:00,60.7,52.0,30.27,South,186,0.0,0.0,73,0.00,,,0.00,0,Wunderground v.1.15,2013-04-28 01:40:00,
2013-04-27 21:50:00,60.4,51.7,30.27,South,186,0.0,0.0,73,0.00,,,0.00,0,Wunderground v.1.15,2013-04-28 01:50:00,
2013-04-27 21:55:00,60.3,51.6,30.27,South,186,0.0,0.0,73,0.00,,,0.00,0,Wunderground v.1.15,2013-04-28 01:55:00,
2013-04-27 22:00:00,60.3,51.6,30.27,South,187,0.0,0.0,73,0.00,,,0.00,0,Wunderground v.1.15,2013-04-28 02:00:00,
2013-04-27 22:10:00,60.2,51.5,30.27,South,187,0.0,0.0,73,0.00,,,0.00,0,Wunderground v.1.15,2013-04-28 02:10:00,
2013-04-27 22:15:00,60.2,51.1,30.27,South,187,0.0,0.0,72,0.00,,,0.00,0,Wunderground v.1.15,2013-04-28 02:15:00,
2013-04-27 22:20:00,60.1,51.4,30.28,South,187,0.0,0.0,73,0.00,,,0.00,0,Wunderground v.1.15,2013-04-28 02:20:00,
2013-04-27 22:25:00,60.0,51.3,30.28,South,186,0.0,0.0,73,0.00,,,0.00,0,Wunderground v.1.15,2013-04-28 02:25:00,
2013-04-27 22:30:00,59.8,51.1,30.28,South,187,0.0,0.0,73,0.00,,,0.00,0,Wunderground v.1.15,2013-04-28 02:30:00,
2013-04-27 22:40:00,59.5,50.1,30.28,ESE,107,0.0,0.0,71,0.00,,,0.00,0,Wunderground v.1.15,2013-04-28 02:40:00,
2013-04-27 22:45:00,59.4,50.4,30.28,ESE,107,0.0,0.0,72,0.00,,,0.00,0,Wunderground v.1.15,2013-04-28 02:45:00,
2013-04-27 22:50:00,59.3,49.5,30.28,South,186,0.0,2.0,70,0.00,,,0.00,0,Wunderground v.1.15,2013-04-28 02:50:00,
2013-04-27 22:55:00,59.5,49.7,30.28,South,190,1.0,2.0,70,0.00,,,0.00,0,Wunderground v.1.15,2013-04-28 02:55:00,
2013-04-27 23:00:00,59.6,49.8,30.28,South,190,1.0,1.0,70,0.00,,,0.00,0,Wunderground v.1.15,2013-04-28 03:00:00,
2013-04-27 23:10:00,59.6,49.4,30.28,South,189,0.0,0.0,69,0.00,,,0.00,0,Wunderground v.1.15,2013-04-28 03:10:00,
2013-04-27 23:15:00,59.5,49.3,30.28,South,174,0.0,0.0,69,0.00,,,0.00,0,Wunderground v.1.15,2013-04-28 03:15:00,
2013-04-27 23:20:00,59.5,49.3,30.28,South,174,0.0,0.0,69,0.00,,,0.00,0,Wunderground v.1.15,2013-04-28 03:20:00,
2013-04-27 23:25:00,59.4,49.2,30.27,South,174,0.0,0.0,69,0.00,,,0.00,0,Wunderground v.1.15,2013-04-28 03:25:00,
2013-04-27 23:30:00,59.2,49.0,30.28,South,174,0.0,0.0,69,0.00,,,0.00,0,Wunderground v.1.15,2013-04-28 03:30:00,
2013-04-27 23:40:00,59.2,48.2,30.28,South,175,1.0,1.0,67,0.00,,,0.00,0,Wunderground v.1.15,2013-04-28 03:40:00,
2013-04-27 23:45:00,59.2,48.6,30.28,SSE,158,1.0,3.0,68,0.00,,,0.00,0,Wunderground v.1.15,2013-04-28 03:45:00,
2013-04-27 23:50:00,59.1,48.1,30.28,SSE,167,1.0,1.0,67,0.00,,,0.00,0,Wunderground v.1.15,2013-04-28 03:50:00,
2013-04-27 23:55:00,59.1,48.1,30.28,South,173,1.0,1.0,67,0.00,,,0.00,0,Wunderground v.1.15,2013-04-28 03:55:00,